Etusivu
METAR-TAF:

METAR-TAF

Lentoasemat :

Göteborg-Landvetter, Ruotsi

Landvetterin lentoasema

Leveyspiiri: 57-40N, Pituuspiiri: 012-18E, korkeus merenpinnasta: 169 m

Tämänhetkinen sää

Tämä raportti tehtiin 21 minuuttia sitten, kello 23.50 UTC
Tuuli 18 kn lounaasta
Lämpötila 11°C
Kosteus 82%
Ilmanpaine 997 hPa
Näkyvyys 10 km tai enemmän
Hajanaisia pilviä 1700 ft:n korkeudessa, Cumulonimbus.
Hajonneita pilviä 2100 ft:n korkeudessa
heikkoja vesikuuroja

METAR: ESGG 252350Z 23018KT 9999 -SHRA SCT017CB BKN021 11/08 Q0997

Aika: 02:11 (00:11 UTC)


TAF: puuttuu

Säähavainnot ja -ennusteet yli 4000 lentoasemalta (METAR- ja TAF-raportit).

Käytössä olevat sääasemat on merkitty karttaan keltaisilla ja punaisilla pisteillä.

Aseta hiiri pisteen päälle nähdäksesi sääaseman nimen.

Klikkaa sitten nähdäksesi säähavainnot ja -ennusteet.

Kartan vaihtaminen: klikkaa mustalla rastilla varustettuja vihreitä pisteitä, niin voit zoomata sisään; viivalla varustettua vihreää pistettä, niin voit zoomata ulos tai vihreitä nuolia, niin pääset viereisille kartoille.


METAR-TAF: